Time,TemperatureF,DewpointF,PressureIn,WindDirection,WindDirectionDegrees,WindSpeedMPH,WindSpeedGustMPH,Humidity,HourlyPrecipIn,Conditions,Clouds,dailyrainin,SoftwareType,DateUTC
2013-11-23 07:40:00,33.7,26.6,30.25,NNE,17,1.0,6.0,75,0.00,,---,0.00,VWS V15.00,2013-11-23 12:40:00,
2013-11-23 07:50:00,33.9,26.8,30.25,West,279,0.0,4.0,75,0.00,,---,0.00,VWS V15.00,2013-11-23 12:50:00,
2013-11-23 08:00:00,33.8,26.4,30.25,NNW,328,0.0,4.0,74,0.00,,---,0.00,VWS V15.00,2013-11-23 13:00:00,
2013-11-23 08:10:00,33.9,26.5,30.25,WSW,246,0.0,4.0,74,0.00,,---,0.00,VWS V15.00,2013-11-23 13:10:00,
2013-11-23 08:20:00,33.8,26.4,30.25,WNW,298,1.0,6.0,74,0.00,,---,0.00,VWS V15.00,2013-11-23 13:20:00,
2013-11-23 08:30:00,33.7,26.3,30.25,SE,127,0.0,8.0,74,0.00,,---,0.00,VWS V15.00,2013-11-23 13:30:00,
2013-11-23 08:36:00,33.6,26.9,30.25,SW,226,6.0,6.0,76,0.00,,---,0.00,VWS V14.01,2013-11-23 13:36:00,
2013-11-23 08:37:00,33.6,26.9,30.25,WSW,254,2.0,6.0,76,0.00,,---,0.00,VWS V14.01,2013-11-23 13:37:00,
2013-11-23 08:39:00,33.7,26.6,30.25,NNE,17,1.0,6.0,75,0.00,,---,0.00,VWS V14.01,2013-11-23 13:39:00,
2013-11-23 08:40:00,33.7,26.6,30.25,NNE,17,1.0,6.0,75,0.00,,---,0.00,VWS V14.01,2013-11-23 13:40:00,
2013-11-23 08:44:00,33.8,26.7,30.25,SSE,153,0.0,2.0,75,0.00,,---,0.00,VWS V14.01,2013-11-23 13:44:00,
2013-11-23 08:49:00,33.9,26.8,30.25,West,279,0.0,4.0,75,0.00,,---,0.00,VWS V14.01,2013-11-23 13:49:00,
2013-11-23 08:50:00,33.9,26.8,30.25,West,279,0.0,4.0,75,0.00,,---,0.00,VWS V14.01,2013-11-23 13:50:00,
2013-11-23 08:55:00,33.8,26.4,30.25,West,275,0.0,4.0,74,0.00,,---,0.00,VWS V14.01,2013-11-23 13:55:00,
2013-11-23 09:00:00,33.8,26.4,30.25,NNW,328,0.0,4.0,74,0.00,,---,0.00,VWS V14.01,2013-11-23 14:00:00,
2013-11-23 09:05:00,33.8,26.4,30.25,ESE,104,0.0,2.0,74,0.00,,---,0.00,VWS V14.01,2013-11-23 14:05:00,
2013-11-23 09:10:00,33.9,26.5,30.25,WSW,246,0.0,4.0,74,0.00,,---,0.00,VWS V14.01,2013-11-23 14:10:00,
2013-11-23 09:15:00,33.9,26.5,30.25,WNW,297,1.0,6.0,74,0.00,,---,0.00,VWS V14.01,2013-11-23 14:15:00,
2013-11-23 09:20:00,33.8,26.4,30.25,WNW,298,1.0,6.0,74,0.00,,---,0.00,VWS V14.01,2013-11-23 14:20:00,
2013-11-23 09:25:00,33.7,26.3,30.25,West,259,5.0,8.0,74,0.00,,---,0.00,VWS V14.01,2013-11-23 14:25:00,
2013-11-23 09:30:00,33.7,26.3,30.25,SE,127,0.0,8.0,74,0.00,,---,0.00,VWS V14.01,2013-11-23 14:30:00,
2013-11-23 09:35:00,33.7,27.0,30.25,WSW,254,0.0,3.0,76,0.00,,---,0.00,VWS V14.01,2013-11-23 14:35:00,
2013-11-23 09:40:00,33.6,26.5,30.25,WNW,300,8.0,8.0,75,0.00,,---,0.00,VWS V14.01,2013-11-23 14:40:00,
2013-11-23 09:45:00,33.5,26.1,30.25,SSE,157,0.0,9.0,74,0.00,,---,0.00,VWS V14.01,2013-11-23 14:45:00,
2013-11-23 09:50:00,33.5,26.4,30.25,West,263,2.0,2.0,75,0.00,,---,0.00,VWS V14.01,2013-11-23 14:50:00,
2013-11-23 09:55:00,33.7,26.3,30.25,ESE,109,0.0,8.0,74,0.00,,---,0.00,VWS V14.01,2013-11-23 14:55:00,
2013-11-23 10:00:00,33.8,26.4,30.26,SW,229,1.0,1.0,74,0.00,,---,0.00,VWS V14.01,2013-11-23 15:00:00,
2013-11-23 10:05:00,33.8,26.1,30.25,WSW,237,6.0,9.0,73,0.00,,---,0.00,VWS V14.01,2013-11-23 15:05:00,
2013-11-23 10:10:00,33.7,25.6,30.25,SW,220,4.0,4.0,72,0.00,,---,0.00,VWS V14.01,2013-11-23 15:10:00,
2013-11-23 10:15:00,33.7,26.0,30.25,WSW,253,0.0,9.0,73,0.00,,---,0.00,VWS V14.01,2013-11-23 15:15:00,
2013-11-23 10:20:00,33.8,26.4,30.25,WSW,249,0.0,0.0,74,0.00,,---,0.00,VWS V14.01,2013-11-23 15:20:00,
2013-11-23 10:25:00,33.8,26.1,30.25,West,259,0.0,5.0,73,0.00,,---,0.00,VWS V14.01,2013-11-23 15:25:00,
2013-11-23 10:30:00,33.9,26.5,30.25,SW,217,6.0,7.0,74,0.00,,---,0.00,VWS V14.01,2013-11-23 15:30:00,
2013-11-23 10:35:00,33.8,26.1,30.24,East,81,1.0,9.0,73,0.00,,---,0.00,VWS V14.01,2013-11-23 15:35:00,
2013-11-23 10:40:00,33.9,26.5,30.24,SW,221,2.0,4.0,74,0.00,,---,0.00,VWS V14.01,2013-11-23 15:40:00,
2013-11-23 10:45:00,34.0,26.3,30.23,SW,223,1.0,6.0,73,0.00,,---,0.00,VWS V14.01,2013-11-23 15:45:00,
2013-11-23 10:50:00,34.0,26.3,30.24,ESE,103,5.0,5.0,73,0.00,,---,0.00,VWS V14.01,2013-11-23 15:50:00,
2013-11-23 10:55:00,34.1,26.0,30.24,WNW,298,0.0,7.0,72,0.00,,---,0.00,VWS V14.01,2013-11-23 15:55:00,
2013-11-23 11:00:00,34.3,26.2,30.23,West,268,1.0,2.0,72,0.00,,---,0.00,VWS V14.01,2013-11-23 16:00:00,
2013-11-23 11:05:00,34.4,26.3,30.23,South,175,1.0,6.0,72,0.00,,---,0.00,VWS V14.01,2013-11-23 16:05:00,
2013-11-23 11:10:00,34.7,25.9,30.22,SSW,209,10.0,11.0,70,0.00,,---,0.00,VWS V14.01,2013-11-23 16:10:00,
2013-11-23 11:15:00,35.2,26.4,30.22,SSW,209,11.0,18.0,70,0.00,,---,0.00,VWS V14.01,2013-11-23 16:15:00,
2013-11-23 11:20:00,35.3,25.8,30.23,NNE,19,2.0,2.0,68,0.00,,---,0.00,VWS V14.01,2013-11-23 16:20:00,
2013-11-23 11:25:00,35.5,26.4,30.23,ESE,105,0.0,6.0,69,0.00,,---,0.00,VWS V14.01,2013-11-23 16:25:00,
2013-11-23 11:30:00,36.4,26.5,30.22,WSW,244,2.0,3.0,67,0.00,,---,0.00,VWS V14.01,2013-11-23 16:30:00,
2013-11-23 11:35:00,36.3,26.0,30.22,SE,145,6.0,12.0,66,0.00,,---,0.00,VWS V14.01,2013-11-23 16:35:00,
2013-11-23 11:40:00,35.9,26.0,30.22,WSW,250,3.0,4.0,67,0.00,,---,0.00,VWS V14.01,2013-11-23 16:40:00,
2013-11-23 11:45:00,35.6,25.7,30.22,West,277,2.0,9.0,67,0.00,,---,0.00,VWS V14.01,2013-11-23 16:45:00,
2013-11-23 11:50:00,35.7,25.8,30.21,SW,223,2.0,7.0,67,0.00,,---,0.00,VWS V14.01,2013-11-23 16:50:00,
2013-11-23 11:55:00,36.0,26.5,30.21,WSW,242,4.0,7.0,68,0.00,,---,0.00,VWS V14.01,2013-11-23 16:55:00,
2013-11-23 12:00:00,35.6,25.7,30.21,SSW,199,3.0,4.0,67,0.00,,---,0.00,VWS V14.01,2013-11-23 17:00:00,
2013-11-23 12:05:00,35.3,25.5,30.20,South,190,1.0,11.0,67,0.00,,---,0.00,VWS V14.01,2013-11-23 17:05:00,
2013-11-23 12:10:00,35.4,25.9,30.20,NNW,327,2.0,3.0,68,0.00,,---,0.00,VWS V14.01,2013-11-23 17:10:00,
2013-11-23 12:15:00,35.7,26.2,30.20,NE,56,0.0,10.0,68,0.00,,---,0.00,VWS V14.01,2013-11-23 17:15:00,
2013-11-23 12:20:00,35.7,25.8,30.19,WNW,295,2.0,5.0,67,0.00,,---,0.00,VWS V14.01,2013-11-23 17:20:00,
2013-11-23 12:25:00,36.0,26.5,30.19,South,178,2.0,6.0,68,0.00,,---,0.00,VWS V14.01,2013-11-23 17:25:00,
2013-11-23 12:30:00,36.2,26.7,30.18,WSW,248,3.0,8.0,68,0.00,,---,0.00,VWS V14.01,2013-11-23 17:30:00,
2013-11-23 12:35:00,36.2,26.0,30.18,WSW,246,1.0,10.0,66,0.00,,---,0.00,VWS V14.01,2013-11-23 17:35:00,
2013-11-23 12:40:00,36.0,26.1,30.18,SSW,194,2.0,5.0,67,0.00,,---,0.00,VWS V14.01,2013-11-23 17:40:00,
2013-11-23 12:45:00,36.7,25.7,30.18,SW,229,5.0,9.0,64,0.00,,---,0.00,VWS V14.01,2013-11-23 17:45:00,
2013-11-23 12:50:00,37.0,24.8,30.18,SW,218,9.0,15.0,61,0.00,,---,0.00,VWS V14.01,2013-11-23 17:50:00,
2013-11-23 12:55:00,36.4,24.2,30.17,SW,226,6.0,18.0,61,0.00,,---,0.00,VWS V14.01,2013-11-23 17:55:00,
2013-11-23 13:00:00,36.3,24.1,30.17,SW,230,4.0,4.0,61,0.00,,---,0.00,VWS V14.01,2013-11-23 18:00:00,
2013-11-23 13:05:00,36.4,25.0,30.17,WSW,248,8.0,12.0,63,0.00,,---,0.00,VWS V14.01,2013-11-23 18:05:00,
2013-11-23 13:10:00,36.1,24.4,30.16,WSW,245,9.0,9.0,62,0.00,,---,0.00,VWS V14.01,2013-11-23 18:10:00,
2013-11-23 13:15:00,36.4,24.6,30.16,WSW,253,3.0,11.0,62,0.00,,---,0.00,VWS V14.01,2013-11-23 18:15:00,
2013-11-23 13:20:00,36.5,24.3,30.16,SW,229,10.0,13.0,61,0.00,,---,0.00,VWS V14.01,2013-11-23 18:20:00,
2013-11-23 13:25:00,36.3,24.1,30.16,WSW,239,11.0,14.0,61,0.00,,---,0.00,VWS V14.01,2013-11-23 18:25:00,
2013-11-23 13:30:00,36.4,25.0,30.15,SW,226,1.0,1.0,63,0.00,,---,0.00,VWS V14.01,2013-11-23 18:30:00,
2013-11-23 13:35:00,36.5,24.0,30.15,NNE,15,1.0,10.0,60,0.00,,---,0.00,VWS V14.01,2013-11-23 18:35:00,
2013-11-23 13:40:00,36.4,23.5,30.15,SW,232,11.0,11.0,59,0.00,,---,0.00,VWS V14.01,2013-11-23 18:40:00,
2013-11-23 13:45:00,36.6,23.2,30.15,SW,219,11.0,14.0,58,0.00,,---,0.00,VWS V14.01,2013-11-23 18:45:00,
2013-11-23 13:50:00,36.7,23.3,30.15,SW,214,8.0,9.0,58,0.00,,---,0.00,VWS V14.01,2013-11-23 18:50:00,
2013-11-23 13:55:00,36.7,23.7,30.15,SW,232,4.0,13.0,59,0.00,,---,0.00,VWS V14.01,2013-11-23 18:55:00,
2013-11-23 14:00:00,36.8,23.8,30.14,SW,223,3.0,5.0,59,0.00,,---,0.00,VWS V14.01,2013-11-23 19:00:00,
2013-11-23 14:05:00,36.7,23.7,30.14,SSW,196,4.0,11.0,59,0.00,,---,0.00,VWS V14.01,2013-11-23 19:05:00,
2013-11-23 14:10:00,36.6,23.2,30.13,WSW,242,9.0,9.0,58,0.00,,---,0.00,VWS V14.01,2013-11-23 19:10:00,
2013-11-23 14:15:00,36.7,23.3,30.13,South,171,1.0,12.0,58,0.00,,---,0.00,VWS V14.01,2013-11-23 19:15:00,
2013-11-23 14:20:00,36.9,23.9,30.13,SSW,194,3.0,5.0,59,0.00,,---,0.00,VWS V14.01,2013-11-23 19:20:00,
2013-11-23 14:25:00,36.9,23.5,30.13,WSW,242,1.0,12.0,58,0.00,,---,0.00,VWS V14.01,2013-11-23 19:25:00,
2013-11-23 14:30:00,36.9,23.9,30.13,WSW,239,12.0,12.0,59,0.00,,---,0.00,VWS V14.01,2013-11-23 19:30:00,
2013-11-23 14:35:00,36.9,22.3,30.13,NNE,15,1.0,13.0,55,0.00,,---,0.00,VWS V14.01,2013-11-23 19:35:00,
2013-11-23 14:40:00,37.1,21.6,30.13,SSE,159,5.0,9.0,53,0.00,,---,0.00,VWS V14.01,2013-11-23 19:40:00,
2013-11-23 14:45:00,36.9,20.5,30.14,NW,315,1.0,10.0,51,0.00,,---,0.00,VWS V14.01,2013-11-23 19:45:00,
2013-11-23 14:50:00,36.9,20.0,30.14,ESE,107,7.0,7.0,50,0.00,,---,0.00,VWS V14.01,2013-11-23 19:50:00,
2013-11-23 14:55:00,36.8,20.4,30.14,WNW,291,3.0,14.0,51,0.00,,---,0.00,VWS V14.01,2013-11-23 19:55:00,
2013-11-23 15:00:00,36.8,20.8,30.14,NW,326,0.0,4.0,52,0.00,,---,0.00,VWS V14.01,2013-11-23 20:00:00,
2013-11-23 15:05:00,36.7,21.2,30.15,NW,313,6.0,14.0,53,0.00,,---,0.00,VWS V14.01,2013-11-23 20:05:00,
2013-11-23 15:10:00,36.3,21.7,30.15,NW,324,5.0,7.0,55,0.00,,---,0.00,VWS V14.01,2013-11-23 20:10:00,
2013-11-23 15:15:00,36.2,22.0,30.15,ENE,69,3.0,12.0,56,0.00,,---,0.00,VWS V14.01,2013-11-23 20:15:00,
2013-11-23 15:20:00,36.3,22.1,30.15,ESE,114,1.0,3.0,56,0.00,,---,0.00,VWS V14.01,2013-11-23 20:20:00,
2013-11-23 15:25:00,36.5,22.3,30.15,WNW,303,6.0,10.0,56,0.00,,---,0.00,VWS V14.01,2013-11-23 20:25:00,
2013-11-23 15:30:00,36.3,21.7,30.16,NW,310,6.0,9.0,55,0.00,,---,0.00,VWS V14.01,2013-11-23 20:30:00,
2013-11-23 15:35:00,36.0,22.3,30.16,SW,223,9.0,13.0,57,0.00,,---,0.00,VWS V14.01,2013-11-23 20:35:00,
2013-11-23 15:40:00,35.6,22.3,30.16,ESE,103,4.0,8.0,58,0.00,,---,0.00,VWS V14.01,2013-11-23 20:40:00,
2013-11-23 15:45:00,35.4,22.9,30.16,NE,47,1.0,8.0,60,0.00,,---,0.00,VWS V14.01,2013-11-23 20:45:00,
2013-11-23 15:50:00,35.3,22.4,30.16,ESE,119,1.0,5.0,59,0.00,,---,0.00,VWS V14.01,2013-11-23 20:50:00,
2013-11-23 15:55:00,35.3,22.4,30.16,SW,226,4.0,12.0,59,0.00,,---,0.00,VWS V14.01,2013-11-23 20:55:00,
2013-11-23 16:00:00,35.2,22.3,30.16,ENE,63,11.0,11.0,59,0.00,,---,0.00,VWS V14.01,2013-11-23 21:00:00,
2013-11-23 16:05:00,35.1,21.4,30.16,East,96,8.0,11.0,57,0.00,,---,0.00,VWS V14.01,2013-11-23 21:05:00,
2013-11-23 16:10:00,34.9,21.2,30.17,SSW,202,3.0,8.0,57,0.00,,---,0.00,VWS V14.01,2013-11-23 21:10:00,
2013-11-23 16:15:00,34.8,21.1,30.17,NW,322,4.0,15.0,57,0.00,,---,0.00,VWS V14.01,2013-11-23 21:15:00,
2013-11-23 16:20:00,34.4,21.6,30.17,WNW,295,10.0,12.0,59,0.00,,---,0.00,VWS V14.01,2013-11-23 21:20:00,
2013-11-23 16:25:00,33.8,21.8,30.17,NE,49,4.0,24.0,61,0.00,,---,0.00,VWS V14.01,2013-11-23 21:25:00,
2013-11-23 16:30:00,33.5,21.5,30.17,NNW,341,9.0,16.0,61,0.00,,---,0.00,VWS V14.01,2013-11-23 21:30:00,
2013-11-23 16:35:00,33.2,22.0,30.18,West,277,4.0,16.0,63,0.00,,---,0.00,VWS V14.01,2013-11-23 21:35:00,
2013-11-23 16:40:00,33.1,21.9,30.18,SE,139,5.0,8.0,63,0.00,,---,0.00,VWS V14.01,2013-11-23 21:40:00,
2013-11-23 16:45:00,32.9,22.1,30.18,ESE,115,2.0,14.0,64,0.00,,---,0.00,VWS V14.01,2013-11-23 21:45:00,
2013-11-23 16:50:00,32.7,22.2,30.18,SSW,206,1.0,2.0,65,0.00,,---,0.00,VWS V14.01,2013-11-23 21:50:00,
2013-11-23 16:55:00,32.6,22.5,30.18,NW,325,2.0,8.0,66,0.00,,---,0.00,VWS V14.01,2013-11-23 21:55:00,
2013-11-23 17:00:00,32.5,22.8,30.18,SSW,205,0.0,5.0,67,0.00,,---,0.00,VWS V14.01,2013-11-23 22:00:00,
2013-11-23 17:05:00,32.5,22.8,30.19,WSW,253,1.0,6.0,67,0.00,,---,0.00,VWS V14.01,2013-11-23 22:05:00,
2013-11-23 17:10:00,32.5,23.1,30.19,SW,218,1.0,1.0,68,0.00,,---,0.00,VWS V14.01,2013-11-23 22:10:00,
2013-11-23 17:15:00,32.5,22.4,30.19,SE,132,0.0,8.0,66,0.00,,---,0.00,VWS V14.01,2013-11-23 22:15:00,
2013-11-23 17:20:00,32.4,21.6,30.19,West,279,2.0,4.0,64,0.00,,---,0.00,VWS V14.01,2013-11-23 22:20:00,
2013-11-23 17:25:00,32.3,21.5,30.19,SE,146,1.0,17.0,64,0.00,,---,0.00,VWS V14.01,2013-11-23 22:25:00,
2013-11-23 17:30:00,32.2,21.8,30.20,SW,223,1.0,11.0,65,0.00,,---,0.00,VWS V14.01,2013-11-23 22:30:00,
2013-11-23 17:35:00,32.1,22.0,30.20,NNW,327,7.0,11.0,66,0.00,,---,0.00,VWS V14.01,2013-11-23 22:35:00,
2013-11-23 17:40:00,31.9,21.5,30.20,West,279,1.0,6.0,65,0.00,,---,0.00,VWS V14.01,2013-11-23 22:40:00,
2013-11-23 17:45:00,31.8,21.4,30.20,NW,314,0.0,10.0,65,0.00,,---,0.00,VWS V14.01,2013-11-23 22:45:00,
2013-11-23 17:50:00,30.2,24.8,30.22,NNW,336,9.0,17.0,80,0.00,,---,0.00,VWS V14.01,2013-11-23 22:50:00,
2013-11-23 17:55:00,28.0,24.4,30.22,NW,315,7.0,17.0,86,0.00,,---,0.00,VWS V14.01,2013-11-23 22:55:00,
2013-11-23 18:00:00,27.3,24.2,30.22,West,269,4.0,7.0,88,0.00,,---,0.00,VWS V14.01,2013-11-23 23:00:00,
2013-11-23 18:05:00,27.1,24.3,30.22,NE,42,2.0,16.0,89,0.00,,---,0.00,VWS V14.01,2013-11-23 23:05:00,
2013-11-23 18:09:00,27.0,24.2,30.22,SSE,153,4.0,16.0,89,0.00,,---,0.00,VWS V14.01,2013-11-23 23:09:00,
2013-11-23 18:10:00,27.0,24.2,30.22,ENE,57,1.0,16.0,89,0.00,,---,0.00,VWS V14.01,2013-11-23 23:10:00,
2013-11-23 18:14:00,27.0,24.2,30.22,SE,142,1.0,11.0,89,0.00,,---,0.00,VWS V14.01,2013-11-23 23:14:00,
2013-11-23 18:19:00,27.1,24.3,30.23,WNW,300,13.0,13.0,89,0.00,,---,0.00,VWS V14.01,2013-11-23 23:19:00,
2013-11-23 18:20:00,27.1,24.3,30.23,ENE,71,4.0,13.0,89,0.00,,---,0.00,VWS V14.01,2013-11-23 23:20:00,
2013-11-23 18:24:00,27.2,24.1,30.23,NE,54,3.0,12.0,88,0.00,,---,0.00,VWS V14.01,2013-11-23 23:24:00,
2013-11-23 18:29:00,27.1,24.0,30.23,WNW,290,6.0,17.0,88,0.00,,---,0.00,VWS V14.01,2013-11-23 23:29:00,
2013-11-23 18:30:00,27.2,24.1,30.23,NW,310,10.0,17.0,88,0.00,,---,0.00,VWS V14.01,2013-11-23 23:30:00,
2013-11-23 18:34:00,27.1,24.3,30.23,WNW,294,11.0,12.0,89,0.00,,---,0.00,VWS V14.01,2013-11-23 23:34:00,
2013-11-23 18:39:00,27.1,24.3,30.23,NW,310,0.0,12.0,89,0.00,,---,0.00,VWS V14.01,2013-11-23 23:39:00,
2013-11-23 18:40:00,27.1,24.3,30.23,WNW,300,4.0,12.0,89,0.00,,---,0.00,VWS V14.01,2013-11-23 23:40:00,
2013-11-23 18:44:00,27.1,24.3,30.23,SSE,155,1.0,10.0,89,0.00,,---,0.00,VWS V14.01,2013-11-23 23:44:00,
2013-11-23 18:49:00,27.1,24.3,30.23,West,270,2.0,10.0,89,0.00,,---,0.00,VWS V14.01,2013-11-23 23:49:00,
2013-11-23 18:50:00,27.1,24.3,30.23,SW,227,1.0,10.0,89,0.00,,---,0.00,VWS V14.01,2013-11-23 23:50:00,
2013-11-23 18:54:00,27.1,24.0,30.24,NW,325,3.0,9.0,88,0.00,,---,0.00,VWS V14.01,2013-11-23 23:54:00,
2013-11-23 18:59:00,27.2,24.1,30.24,NW,310,0.0,11.0,88,0.00,,---,0.00,VWS V14.01,2013-11-23 23:59:00,
2013-11-23 19:00:00,27.1,24.0,30.24,NW,324,5.0,11.0,88,0.00,,---,0.00,VWS V14.01,2013-11-24 00:00:00,
2013-11-23 19:04:00,27.0,23.6,30.24,NE,49,4.0,18.0,87,0.00,,---,0.00,VWS V14.01,2013-11-24 00:04:00,
2013-11-23 19:09:00,26.5,21.5,30.25,WSW,242,9.0,21.0,81,0.00,,---,0.00,VWS V14.01,2013-11-24 00:09:00,
2013-11-23 19:10:00,26.5,21.5,30.25,North,11,9.0,21.0,81,0.00,,---,0.00,VWS V14.01,2013-11-24 00:10:00,
2013-11-23 19:14:00,26.3,21.3,30.25,WNW,299,4.0,16.0,81,0.00,,---,0.00,VWS V14.01,2013-11-24 00:14:00,
2013-11-23 19:19:00,26.1,21.4,30.25,NW,313,7.0,16.0,82,0.00,,---,0.00,VWS V14.01,2013-11-24 00:19:00,
2013-11-23 19:20:00,26.1,21.1,30.25,NNE,30,8.0,16.0,81,0.00,,---,0.00,VWS V14.01,2013-11-24 00:20:00,
2013-11-23 19:24:00,26.1,21.1,30.25,WNW,295,3.0,14.0,81,0.00,,---,0.00,VWS V14.01,2013-11-24 00:24:00,
2013-11-23 19:29:00,26.1,21.1,30.25,NNW,344,2.0,14.0,81,0.00,,---,0.00,VWS V14.01,2013-11-24 00:29:00,
2013-11-23 19:30:00,26.1,21.1,30.25,NW,317,5.0,14.0,81,0.00,,---,0.00,VWS V14.01,2013-11-24 00:30:00,
2013-11-23 19:34:00,26.2,20.9,30.26,WNW,287,11.0,13.0,80,0.00,,---,0.00,VWS V14.01,2013-11-24 00:34:00,
2013-11-23 19:39:00,26.3,19.5,30.26,West,271,6.0,26.0,75,0.00,,---,0.00,VWS V14.01,2013-11-24 00:39:00,
2013-11-23 19:40:00,26.3,19.5,30.26,NW,317,8.0,26.0,75,0.00,,---,0.00,VWS V14.01,2013-11-24 00:40:00,
2013-11-23 19:44:00,26.3,18.8,30.26,SW,234,12.0,19.0,73,0.00,,---,0.00,VWS V14.01,2013-11-24 00:44:00,
2013-11-23 19:49:00,26.3,18.8,30.27,SSE,161,5.0,19.0,73,0.00,,---,0.00,VWS V14.01,2013-11-24 00:49:00,
2013-11-23 19:50:00,26.3,18.8,30.27,NNW,340,2.0,19.0,73,0.00,,---,0.00,VWS V14.01,2013-11-24 00:50:00,
2013-11-23 19:54:00,26.3,19.1,30.27,SE,132,1.0,10.0,74,0.00,,---,0.00,VWS V14.01,2013-11-24 00:54:00,
2013-11-23 19:59:00,26.3,18.8,30.27,NW,304,8.0,12.0,73,0.00,,---,0.00,VWS V14.01,2013-11-24 00:59:00,
2013-11-23 20:00:00,26.3,18.5,30.27,WNW,286,7.0,12.0,72,0.00,,---,0.00,VWS V14.01,2013-11-24 01:00:00,
2013-11-23 20:04:00,26.4,18.6,30.27,NW,315,14.0,14.0,72,0.00,,---,0.00,VWS V14.01,2013-11-24 01:04:00,
2013-11-23 20:09:00,26.4,18.0,30.27,NW,310,7.0,17.0,70,0.00,,---,0.00,VWS V14.01,2013-11-24 01:09:00,
2013-11-23 20:10:00,26.4,18.0,30.27,NNW,331,7.0,17.0,70,0.00,,---,0.00,VWS V14.01,2013-11-24 01:10:00,
2013-11-23 20:14:00,26.4,17.3,30.28,WNW,299,9.0,13.0,68,0.00,,---,0.00,VWS V14.01,2013-11-24 01:14:00,
2013-11-23 20:19:00,26.3,16.9,30.28,NW,321,9.0,17.0,67,0.00,,---,0.00,VWS V14.01,2013-11-24 01:19:00,
2013-11-23 20:20:00,26.3,16.9,30.28,West,281,4.0,17.0,67,0.00,,---,0.00,VWS V14.01,2013-11-24 01:20:00,
2013-11-23 20:24:00,26.3,16.1,30.28,WNW,290,9.0,13.0,65,0.00,,---,0.00,VWS V14.01,2013-11-24 01:24:00,
2013-11-23 20:29:00,26.2,16.1,30.28,NNW,330,4.0,13.0,65,0.00,,---,0.00,VWS V14.01,2013-11-24 01:29:00,
2013-11-23 20:30:00,26.2,16.1,30.28,NNW,342,5.0,13.0,65,0.00,,---,0.00,VWS V14.01,2013-11-24 01:30:00,
2013-11-23 20:34:00,26.1,16.3,30.28,NW,310,2.0,8.0,66,0.00,,---,0.00,VWS V14.01,2013-11-24 01:34:00,
2013-11-23 20:39:00,26.1,16.7,30.29,West,276,3.0,11.0,67,0.00,,---,0.00,VWS V14.01,2013-11-24 01:39:00,
2013-11-23 20:40:00,26.1,16.3,30.29,NW,326,4.0,11.0,66,0.00,,---,0.00,VWS V14.01,2013-11-24 01:40:00,
2013-11-23 20:44:00,26.1,16.3,30.29,WNW,302,9.0,12.0,66,0.00,,---,0.00,VWS V14.01,2013-11-24 01:44:00,
2013-11-23 20:49:00,25.9,15.4,30.29,NW,305,6.0,13.0,64,0.00,,---,0.00,VWS V14.01,2013-11-24 01:49:00,
2013-11-23 20:50:00,25.9,15.4,30.29,NW,306,4.0,13.0,64,0.00,,---,0.00,VWS V14.01,2013-11-24 01:50:00,
2013-11-23 20:54:00,25.7,15.9,30.30,WNW,303,12.0,24.0,66,0.00,,---,0.00,VWS V14.01,2013-11-24 01:54:00,
2013-11-23 20:59:00,25.1,16.7,30.30,NW,315,14.0,24.0,70,0.00,,---,0.00,VWS V14.01,2013-11-24 01:59:00,
2013-11-23 21:00:00,25.0,16.6,30.30,WNW,294,9.0,24.0,70,0.00,,---,0.00,VWS V14.01,2013-11-24 02:00:00,
2013-11-23 21:04:00,24.6,16.9,30.30,WNW,298,7.0,16.0,72,0.00,,---,0.00,VWS V14.01,2013-11-24 02:04:00,
2013-11-23 21:09:00,24.4,17.0,30.30,NW,308,5.0,16.0,73,0.00,,---,0.00,VWS V14.01,2013-11-24 02:09:00,
2013-11-23 21:10:00,24.3,16.9,30.30,NW,307,5.0,16.0,73,0.00,,---,0.00,VWS V14.01,2013-11-24 02:10:00,
2013-11-23 21:14:00,24.2,16.8,30.31,WSW,254,4.0,12.0,73,0.00,,---,0.00,VWS V14.01,2013-11-24 02:14:00,
2013-11-23 21:19:00,24.1,17.3,30.31,NW,310,10.0,12.0,75,0.00,,---,0.00,VWS V14.01,2013-11-24 02:19:00,
2013-11-23 21:20:00,24.0,17.2,30.31,WNW,288,4.0,12.0,75,0.00,,---,0.00,VWS V14.01,2013-11-24 02:20:00,
2013-11-23 21:24:00,23.8,17.4,30.31,NW,305,3.0,12.0,76,0.00,,---,0.00,VWS V14.01,2013-11-24 02:24:00,
2013-11-23 21:29:00,23.6,17.2,30.31,WNW,298,5.0,13.0,76,0.00,,---,0.00,VWS V14.01,2013-11-24 02:29:00,
2013-11-23 21:30:00,23.6,17.2,30.31,NNW,334,3.0,13.0,76,0.00,,---,0.00,VWS V14.01,2013-11-24 02:30:00,
2013-11-23 21:34:00,23.5,16.8,30.31,NNW,333,4.0,11.0,75,0.00,,---,0.00,VWS V14.01,2013-11-24 02:34:00,
2013-11-23 21:39:00,23.5,15.5,30.32,WNW,290,9.0,16.0,71,0.00,,---,0.00,VWS V14.01,2013-11-24 02:39:00,
2013-11-23 21:40:00,23.5,15.5,30.32,WNW,300,12.0,16.0,71,0.00,,---,0.00,VWS V14.01,2013-11-24 02:40:00,
2013-11-23 21:44:00,23.4,15.1,30.32,NNW,348,5.0,20.0,70,0.00,,---,0.00,VWS V14.01,2013-11-24 02:44:00,
2013-11-23 21:49:00,23.5,14.5,30.32,SW,222,7.0,20.0,68,0.00,,---,0.00,VWS V14.01,2013-11-24 02:49:00,
2013-11-23 21:50:00,23.5,14.5,30.32,NNW,333,2.0,20.0,68,0.00,,---,0.00,VWS V14.01,2013-11-24 02:50:00,
2013-11-23 21:54:00,23.5,14.5,30.32,NW,317,8.0,14.0,68,0.00,,---,0.00,VWS V14.01,2013-11-24 02:54:00,
2013-11-23 21:59:00,23.4,14.4,30.32,NW,314,7.0,17.0,68,0.00,,---,0.00,VWS V14.01,2013-11-24 02:59:00,
2013-11-23 22:00:00,23.4,14.4,30.32,NW,310,11.0,17.0,68,0.00,,---,0.00,VWS V14.01,2013-11-24 03:00:00,
2013-11-23 22:04:00,23.4,14.1,30.32,WNW,303,7.0,16.0,67,0.00,,---,0.00,VWS V14.01,2013-11-24 03:04:00,
2013-11-23 22:09:00,23.3,13.6,30.32,WNW,299,8.0,16.0,66,0.00,,---,0.00,VWS V14.01,2013-11-24 03:09:00,
2013-11-23 22:10:00,23.3,13.6,30.32,NW,322,8.0,16.0,66,0.00,,---,0.00,VWS V14.01,2013-11-24 03:10:00,
2013-11-23 22:14:00,23.2,13.5,30.32,NW,311,1.0,10.0,66,0.00,,---,0.00,VWS V14.01,2013-11-24 03:14:00,
2013-11-23 22:19:00,23.1,13.8,30.33,WNW,287,9.0,13.0,67,0.00,,---,0.00,VWS V14.01,2013-11-24 03:19:00,
2013-11-23 22:20:00,23.1,14.1,30.33,WNW,297,8.0,13.0,68,0.00,,---,0.00,VWS V14.01,2013-11-24 03:20:00,
2013-11-23 22:24:00,22.9,14.3,30.33,WNW,287,11.0,16.0,69,0.00,,---,0.00,VWS V14.01,2013-11-24 03:24:00,
2013-11-23 22:29:00,22.7,14.4,30.33,NW,317,3.0,16.0,70,0.00,,---,0.00,VWS V14.01,2013-11-24 03:29:00,
2013-11-23 22:30:00,22.7,14.4,30.33,North,11,5.0,16.0,70,0.00,,---,0.00,VWS V14.01,2013-11-24 03:30:00,
2013-11-23 22:34:00,22.6,14.9,30.33,NW,309,5.0,14.0,72,0.00,,---,0.00,VWS V14.01,2013-11-24 03:34:00,
2013-11-23 22:39:00,22.4,15.1,30.34,NNW,330,8.0,14.0,73,0.00,,---,0.00,VWS V14.01,2013-11-24 03:39:00,
2013-11-23 22:40:00,22.4,15.1,30.34,NW,306,7.0,14.0,73,0.00,,---,0.00,VWS V14.01,2013-11-24 03:40:00,
2013-11-23 22:44:00,22.2,15.2,30.34,WNW,300,6.0,15.0,74,0.00,,---,0.00,VWS V14.01,2013-11-24 03:44:00,
2013-11-23 22:49:00,21.9,15.5,30.34,WNW,292,2.0,16.0,76,0.00,,---,0.00,VWS V14.01,2013-11-24 03:49:00,
2013-11-23 22:50:00,21.9,15.5,30.34,SSW,207,0.0,16.0,76,0.00,,---,0.00,VWS V14.01,2013-11-24 03:50:00,
2013-11-23 22:54:00,21.7,15.6,30.34,NW,310,7.0,9.0,77,0.00,,---,0.00,VWS V14.01,2013-11-24 03:54:00,
2013-11-23 22:59:00,21.5,16.6,30.35,NW,307,6.0,11.0,81,0.00,,---,0.00,VWS V14.01,2013-11-24 03:59:00,
2013-11-23 23:00:00,21.5,16.9,30.35,SSW,200,2.0,11.0,82,0.00,,---,0.00,VWS V14.01,2013-11-24 04:00:00,
2013-11-23 23:04:00,21.3,17.0,30.35,West,273,1.0,5.0,83,0.00,,---,0.00,VWS V14.01,2013-11-24 04:04:00,
2013-11-23 23:09:00,21.2,16.6,30.35,NNW,327,3.0,9.0,82,0.00,,---,0.00,VWS V14.01,2013-11-24 04:09:00,
2013-11-23 23:10:00,21.2,16.6,30.35,NW,315,2.0,9.0,82,0.00,,---,0.00,VWS V14.01,2013-11-24 04:10:00,
2013-11-23 23:14:00,21.2,16.6,30.35,NW,304,0.0,5.0,82,0.00,,---,0.00,VWS V14.01,2013-11-24 04:14:00,
2013-11-23 23:19:00,21.2,15.4,30.35,WNW,302,3.0,13.0,78,0.00,,---,0.00,VWS V14.01,2013-11-24 04:19:00,
2013-11-23 23:20:00,21.2,15.4,30.35,WNW,295,3.0,13.0,78,0.00,,---,0.00,VWS V14.01,2013-11-24 04:20:00,
2013-11-23 23:24:00,21.2,15.1,30.35,West,275,6.0,7.0,77,0.00,,---,0.00,VWS V14.01,2013-11-24 04:24:00,
2013-11-23 23:29:00,21.1,14.7,30.35,NW,305,6.0,7.0,76,0.00,,---,0.00,VWS V14.01,2013-11-24 04:29:00,
2013-11-23 23:30:00,21.2,14.5,30.35,WNW,290,6.0,7.0,75,0.00,,---,0.00,VWS V14.01,2013-11-24 04:30:00,
2013-11-23 23:34:00,21.1,14.1,30.35,NW,325,0.0,10.0,74,0.00,,---,0.00,VWS V14.01,2013-11-24 04:34:00,
2013-11-23 23:39:00,21.0,13.7,30.36,NW,324,6.0,10.0,73,0.00,,---,0.00,VWS V14.01,2013-11-24 04:39:00,
2013-11-23 23:40:00,21.0,13.7,30.36,NW,310,4.0,10.0,73,0.00,,---,0.00,VWS V14.01,2013-11-24 04:40:00,